Time;durP1;ratioP1;P1;durP2;ratioP2;P2;SDS_P1;SDS_P2;PMS_P1;PMS_P2;Temp;Humidity;BMP_temperature;BMP_pressure;BME280_temperature;BME280_humidity;BME280_pressure;Samples;Min_cycle;Max_cycle;Signal;HPM_P1;HPM_P2
2023/10/24 00:01:49;;;;;;;13.43;9.33;;;11.50;99.90;;;;;;5085310;28;20235;-60
2023/10/24 00:04:17;;;;;;;11.77;8.87;;;11.50;99.90;;;;;;5085775;28;20208;-60
2023/10/24 00:06:46;;;;;;;14.37;9.57;;;11.60;99.90;;;;;;5085795;28;20696;-60
2023/10/24 00:09:15;;;;;;;12.97;9.87;;;11.50;99.90;;;;;;5083496;28;20216;-60
2023/10/24 00:11:43;;;;;;;13.20;8.43;;;11.50;99.90;;;;;;5087967;28;20207;-60
2023/10/24 00:14:12;;;;;;;10.10;8.60;;;11.50;99.90;;;;;;5080246;28;21328;-60
2023/10/24 00:16:41;;;;;;;11.23;8.93;;;11.50;99.90;;;;;;5082079;28;20662;-59
2023/10/24 00:19:11;;;;;;;11.57;8.97;;;11.50;99.90;;;;;;5071217;28;20624;-60
2023/10/24 00:21:40;;;;;;;9.33;8.33;;;11.50;99.90;;;;;;5082050;28;20276;-60
2023/10/24 00:24:08;;;;;;;8.93;7.97;;;11.50;99.90;;;;;;5085063;28;20589;-60
2023/10/24 00:26:38;;;;;;;10.57;8.33;;;11.50;99.90;;;;;;5084499;28;20227;-60
2023/10/24 00:29:06;;;;;;;11.43;8.33;;;11.50;99.90;;;;;;5083336;28;20284;-60
2023/10/24 00:31:35;;;;;;;12.17;8.17;;;11.50;99.90;;;;;;5088285;28;20202;-59
2023/10/24 00:34:03;;;;;;;10.80;8.23;;;11.40;99.90;;;;;;5087434;28;20546;-60
2023/10/24 00:36:31;;;;;;;10.13;7.63;;;11.50;99.90;;;;;;5085451;28;20704;-60
2023/10/24 00:39:02;;;;;;;11.47;7.70;;;11.50;99.90;;;;;;5080184;28;20227;-60
2023/10/24 00:41:30;;;;;;;8.37;7.50;;;11.50;99.90;;;;;;5082601;28;20220;-60
2023/10/24 00:44:00;;;;;;;8.03;7.23;;;11.50;99.90;;;;;;5084603;28;20226;-59
2023/10/24 00:46:28;;;;;;;8.97;8.07;;;11.50;99.90;;;;;;5085060;28;20549;-59
2023/10/24 00:48:57;;;;;;;10.70;8.20;;;11.50;99.90;;;;;;5087498;28;20698;-60
2023/10/24 00:51:25;;;;;;;10.13;8.17;;;11.50;99.90;;;;;;5067346;28;20253;-60
2023/10/24 00:53:54;;;;;;;10.80;8.73;;;11.50;99.90;;;;;;5084947;28;20222;-60
2023/10/24 00:56:23;;;;;;;11.70;9.47;;;11.40;99.90;;;;;;5066184;28;20226;-60
2023/10/24 00:58:52;;;;;;;12.63;9.73;;;11.40;99.90;;;;;;5079401;28;20230;-60
2023/10/24 01:01:21;;;;;;;12.27;9.90;;;11.40;99.90;;;;;;5086798;28;20191;-59
2023/10/24 01:03:50;;;;;;;12.27;9.20;;;11.40;99.90;;;;;;5076361;28;20712;-60
2023/10/24 01:06:18;;;;;;;11.93;9.70;;;11.40;99.90;;;;;;5082691;28;20263;-60
2023/10/24 01:08:47;;;;;;;12.53;10.10;;;11.40;99.90;;;;;;5078987;28;20219;-60
2023/10/24 01:11:15;;;;;;;14.30;10.07;;;11.40;99.90;;;;;;5063203;28;20224;-60
2023/10/24 01:13:44;;;;;;;10.33;9.23;;;11.40;99.90;;;;;;5064799;28;20224;-59
2023/10/24 01:16:12;;;;;;;11.40;9.17;;;11.40;99.90;;;;;;5082761;28;20287;-60
2023/10/24 01:18:43;;;;;;;10.67;8.17;;;11.40;99.90;;;;;;5063870;28;20231;-60
2023/10/24 01:21:11;;;;;;;9.73;8.63;;;11.40;99.90;;;;;;5080441;28;20215;-60
2023/10/24 01:23:41;;;;;;;10.23;8.80;;;11.40;99.90;;;;;;5086351;28;20218;-60
2023/10/24 01:26:11;;;;;;;9.03;8.13;;;11.40;99.90;;;;;;5082622;28;20227;-60
2023/10/24 01:28:39;;;;;;;9.93;8.33;;;11.40;99.90;;;;;;5084361;28;20183;-59
2023/10/24 01:31:07;;;;;;;9.10;8.13;;;11.40;99.90;;;;;;5081754;28;20198;-60
2023/10/24 01:33:36;;;;;;;8.30;7.60;;;11.40;99.90;;;;;;5081793;28;20222;-60
2023/10/24 01:36:04;;;;;;;8.23;7.40;;;11.40;99.90;;;;;;5087346;28;20223;-60
2023/10/24 01:38:33;;;;;;;9.00;7.37;;;11.40;99.90;;;;;;5084291;28;20308;-60
2023/10/24 01:41:02;;;;;;;8.13;6.90;;;11.40;99.90;;;;;;5076644;28;20226;-60
2023/10/24 01:43:30;;;;;;;7.90;7.10;;;11.40;99.90;;;;;;5084116;28;20200;-59
2023/10/24 01:45:59;;;;;;;10.53;6.70;;;11.40;99.90;;;;;;5081244;28;20191;-60
2023/10/24 01:48:27;;;;;;;6.90;6.30;;;11.40;99.90;;;;;;5079535;28;20216;-60
2023/10/24 01:50:56;;;;;;;7.13;6.47;;;11.40;99.90;;;;;;5081212;28;20219;-60
2023/10/24 01:53:24;;;;;;;6.83;6.30;;;11.40;99.90;;;;;;5083041;28;20211;-60
2023/10/24 01:55:52;;;;;;;7.23;6.63;;;11.30;99.90;;;;;;5079043;28;20227;-59
2023/10/24 01:58:22;;;;;;;6.90;6.30;;;11.30;99.90;;;;;;5081281;28;20244;-60
2023/10/24 02:00:50;;;;;;;6.93;6.33;;;11.30;99.90;;;;;;5082443;28;20594;-60
2023/10/24 02:03:18;;;;;;;6.40;5.90;;;11.30;99.90;;;;;;5066656;28;20851;-60
2023/10/24 02:05:46;;;;;;;7.57;6.37;;;11.40;99.90;;;;;;5063567;28;20266;-60
2023/10/24 02:08:14;;;;;;;7.20;6.50;;;11.40;99.90;;;;;;5060722;28;20558;-60
2023/10/24 02:10:42;;;;;;;7.93;7.10;;;11.40;99.90;;;;;;5065487;28;20228;-59
2023/10/24 02:13:11;;;;;;;10.50;7.00;;;11.30;99.90;;;;;;5063244;28;20196;-61
2023/10/24 02:15:40;;;;;;;8.30;7.03;;;11.40;99.90;;;;;;5058699;28;20354;-60
2023/10/24 02:18:09;;;;;;;8.33;7.47;;;11.40;99.90;;;;;;5062077;28;20311;-60
2023/10/24 02:20:38;;;;;;;8.37;7.57;;;11.40;99.90;;;;;;5062527;28;20626;-59
2023/10/24 02:23:07;;;;;;;8.90;8.00;;;11.40;99.90;;;;;;5067420;28;20686;-60
2023/10/24 02:25:36;;;;;;;9.77;7.80;;;11.30;99.90;;;;;;5063442;28;20647;-59
2023/10/24 02:28:05;;;;;;;8.37;7.57;;;11.30;99.90;;;;;;5061717;28;20218;-60
2023/10/24 02:30:37;;;;;;;8.07;7.27;;;11.30;99.90;;;;;;5066909;28;20231;-59
2023/10/24 02:33:07;;;;;;;7.80;7.00;;;11.30;99.90;;;;;;5065022;28;20718;-59
2023/10/24 02:35:35;;;;;;;8.37;7.33;;;11.30;99.90;;;;;;5067496;28;20673;-59
2023/10/24 02:38:03;;;;;;;7.93;7.13;;;11.30;99.90;;;;;;5071327;28;20686;-59
2023/10/24 02:40:31;;;;;;;8.23;7.17;;;11.30;99.90;;;;;;5082616;28;20194;-59
2023/10/24 02:43:00;;;;;;;7.20;6.50;;;11.30;99.90;;;;;;5084291;28;20284;-60
2023/10/24 02:45:28;;;;;;;7.03;6.43;;;11.30;99.90;;;;;;5082949;28;20223;-60
2023/10/24 02:47:56;;;;;;;7.13;6.43;;;11.30;99.90;;;;;;5081077;28;20317;-60
2023/10/24 02:50:26;;;;;;;6.90;6.30;;;11.30;99.90;;;;;;5082819;28;20219;-59
2023/10/24 02:52:54;;;;;;;7.20;6.50;;;11.30;99.90;;;;;;5081157;28;20566;-59
2023/10/24 02:55:22;;;;;;;6.80;6.20;;;11.30;99.90;;;;;;5084704;28;20301;-60
2023/10/24 02:57:50;;;;;;;6.60;6.03;;;11.30;99.90;;;;;;5085496;28;20224;-60
2023/10/24 03:00:19;;;;;;;6.47;5.90;;;11.30;99.90;;;;;;5083689;28;20215;-60
2023/10/24 03:02:47;;;;;;;8.80;6.40;;;11.30;99.90;;;;;;5080667;28;20226;-59
2023/10/24 03:05:15;;;;;;;6.90;5.90;;;11.30;99.90;;;;;;5086170;28;20230;-59
2023/10/24 03:07:45;;;;;;;7.20;6.50;;;11.20;99.90;;;;;;5086749;28;20227;-59
2023/10/24 03:10:13;;;;;;;7.23;6.53;;;11.30;99.90;;;;;;5086701;28;20192;-59
2023/10/24 03:12:41;;;;;;;7.30;6.60;;;11.20;99.90;;;;;;5086587;28;20215;-59
2023/10/24 03:15:10;;;;;;;7.10;6.40;;;11.20;99.90;;;;;;5080672;28;20222;-59
2023/10/24 03:17:39;;;;;;;7.27;6.57;;;11.10;99.90;;;;;;5085163;28;20692;-59
2023/10/24 03:20:08;;;;;;;7.10;6.50;;;11.20;99.90;;;;;;5082877;28;20211;-60
2023/10/24 03:22:37;;;;;;;8.70;6.57;;;11.20;99.90;;;;;;5080516;28;20282;-59
2023/10/24 03:25:08;;;;;;;9.53;7.10;;;11.20;99.90;;;;;;5081319;28;20196;-60
2023/10/24 03:27:36;;;;;;;8.60;7.10;;;11.20;99.90;;;;;;5083028;28;20226;-60
2023/10/24 03:30:06;;;;;;;8.23;7.40;;;11.20;99.90;;;;;;5082989;28;20216;-60
2023/10/24 03:32:34;;;;;;;7.63;6.93;;;11.20;99.90;;;;;;5083807;28;20223;-59
2023/10/24 03:35:02;;;;;;;7.97;7.17;;;11.20;99.90;;;;;;5081321;28;20223;-59
2023/10/24 03:37:30;;;;;;;11.97;7.30;;;11.20;99.90;;;;;;5078745;28;20215;-58
2023/10/24 03:39:59;;;;;;;8.67;7.17;;;11.20;99.90;;;;;;5082649;28;20245;-59
2023/10/24 03:42:30;;;;;;;8.07;7.27;;;11.10;99.90;;;;;;5085768;28;20250;-59
2023/10/24 03:44:58;;;;;;;10.23;7.33;;;11.10;99.90;;;;;;5081650;28;20235;-59
2023/10/24 03:47:27;;;;;;;8.40;7.60;;;11.10;99.90;;;;;;5082004;28;20214;-60
2023/10/24 03:49:55;;;;;;;9.90;7.33;;;11.10;99.90;;;;;;5080311;28;20280;-59
2023/10/24 03:52:23;;;;;;;9.00;7.67;;;11.10;99.90;;;;;;5086307;28;20278;-59
2023/10/24 03:54:52;;;;;;;8.40;7.50;;;11.10;99.90;;;;;;5082622;28;20254;-60
2023/10/24 03:57:20;;;;;;;9.23;8.23;;;11.00;99.90;;;;;;5082278;28;20215;-59
2023/10/24 03:59:49;;;;;;;9.33;7.90;;;11.10;99.90;;;;;;5081725;28;20227;-59
2023/10/24 04:02:17;;;;;;;9.60;7.23;;;11.00;99.90;;;;;;5075079;28;20223;-59
2023/10/24 04:04:46;;;;;;;10.23;7.93;;;11.00;99.90;;;;;;5084011;28;20234;-60
2023/10/24 04:07:14;;;;;;;10.50;8.60;;;11.00;99.90;;;;;;5082550;28;20236;-60
2023/10/24 04:09:42;;;;;;;9.33;8.27;;;10.90;99.90;;;;;;5082290;28;20227;-60
2023/10/24 04:12:10;;;;;;;11.63;9.17;;;10.90;99.90;;;;;;5077619;28;20225;-60
2023/10/24 04:14:38;;;;;;;11.40;8.47;;;10.80;99.90;;;;;;5082740;28;20208;-60
2023/10/24 04:17:08;;;;;;;11.40;9.20;;;10.70;99.90;;;;;;5086124;28;20701;-59
2023/10/24 04:19:37;;;;;;;11.40;9.43;;;10.70;99.90;;;;;;5080701;28;20194;-59
2023/10/24 04:22:05;;;;;;;12.93;10.03;;;10.70;99.90;;;;;;5082582;28;20210;-60
2023/10/24 04:24:33;;;;;;;12.40;10.17;;;10.60;99.90;;;;;;5083958;28;20226;-59
2023/10/24 04:27:02;;;;;;;14.93;9.77;;;10.50;99.90;;;;;;5082212;28;20666;-59
2023/10/24 04:29:31;;;;;;;12.10;9.70;;;10.50;99.90;;;;;;5082662;28;20218;-60
2023/10/24 04:31:59;;;;;;;14.23;10.17;;;10.50;99.90;;;;;;5081346;28;20215;-59
2023/10/24 04:34:29;;;;;;;13.33;10.30;;;10.40;99.90;;;;;;5087929;28;20577;-58
2023/10/24 04:36:58;;;;;;;14.87;10.90;;;10.40;99.90;;;;;;5078187;28;20216;-60
2023/10/24 04:39:26;;;;;;;17.23;11.13;;;10.30;99.90;;;;;;5080636;28;20216;-59
2023/10/24 04:41:55;;;;;;;20.13;11.87;;;10.20;99.90;;;;;;5083548;28;20593;-60
2023/10/24 04:44:23;;;;;;;18.43;11.40;;;10.30;99.90;;;;;;5083874;28;20553;-60
2023/10/24 04:46:51;;;;;;;14.53;11.50;;;10.30;99.90;;;;;;5080341;28;20215;-60
2023/10/24 04:49:20;;;;;;;17.30;11.67;;;10.20;99.90;;;;;;5083238;28;20563;-60
2023/10/24 04:51:52;;;;;;;17.40;11.40;;;10.20;99.90;;;;;;5077994;28;20220;-60
2023/10/24 04:54:20;;;;;;;17.17;11.70;;;10.20;99.90;;;;;;5081193;28;20238;-60
2023/10/24 04:56:48;;;;;;;15.77;10.83;;;10.20;99.90;;;;;;5076376;28;20219;-59
2023/10/24 04:59:17;;;;;;;18.73;11.23;;;10.20;99.90;;;;;;5071747;28;20227;-60
2023/10/24 05:01:45;;;;;;;18.63;12.00;;;10.30;99.90;;;;;;5055708;28;20235;-59
2023/10/24 05:04:13;;;;;;;17.77;12.20;;;10.30;99.90;;;;;;5066021;28;20722;-59
2023/10/24 05:06:43;;;;;;;18.27;11.57;;;10.30;99.90;;;;;;5063298;28;20227;-59
2023/10/24 05:09:15;;;;;;;19.70;12.20;;;10.30;99.90;;;;;;5065751;28;20690;-59
2023/10/24 05:11:44;;;;;;;19.47;12.37;;;10.20;99.90;;;;;;5060872;28;20230;-59
2023/10/24 05:14:13;;;;;;;18.90;12.33;;;10.20;99.90;;;;;;5063615;28;20219;-60
2023/10/24 05:16:44;;;;;;;21.67;13.07;;;10.20;99.90;;;;;;5061269;28;20228;-59
2023/10/24 05:19:12;;;;;;;20.63;12.13;;;10.20;99.90;;;;;;5066982;28;20587;-59
2023/10/24 05:21:40;;;;;;;20.57;13.10;;;10.20;99.90;;;;;;5076983;28;20638;-59
2023/10/24 05:24:08;;;;;;;22.53;13.83;;;10.20;99.90;;;;;;5070305;28;20218;-59
2023/10/24 05:26:38;;;;;;;23.27;13.03;;;10.30;99.90;;;;;;5082292;28;20247;-59
2023/10/24 05:29:07;;;;;;;21.90;12.53;;;10.20;99.90;;;;;;5078766;28;20216;-59
2023/10/24 05:31:35;;;;;;;16.97;11.50;;;10.20;99.90;;;;;;5083302;28;20230;-59
2023/10/24 05:34:03;;;;;;;18.83;12.03;;;10.20;99.90;;;;;;5085653;28;20191;-59
2023/10/24 05:36:31;;;;;;;21.17;11.87;;;10.20;99.90;;;;;;5080948;28;20228;-59
2023/10/24 05:39:00;;;;;;;17.60;11.70;;;10.20;99.90;;;;;;5077971;28;20832;-59
2023/10/24 05:41:28;;;;;;;19.83;11.30;;;10.20;99.90;;;;;;5085676;28;20298;-60
2023/10/24 05:43:58;;;;;;;17.43;11.37;;;10.10;99.90;;;;;;5080735;28;20227;-59
2023/10/24 05:46:26;;;;;;;16.70;11.00;;;10.20;99.90;;;;;;5080589;28;20202;-59
2023/10/24 05:48:54;;;;;;;20.80;12.33;;;10.10;99.90;;;;;;5081193;28;20525;-60
2023/10/24 05:51:23;;;;;;;19.40;11.70;;;10.10;99.90;;;;;;5083914;28;20569;-59
2023/10/24 05:53:52;;;;;;;18.27;11.17;;;10.10;99.90;;;;;;5082458;28;20215;-59
2023/10/24 05:56:20;;;;;;;17.90;11.53;;;10.10;99.90;;;;;;5063502;28;20697;-60
2023/10/24 05:58:48;;;;;;;17.50;11.60;;;10.10;99.90;;;;;;5065629;28;20708;-60
2023/10/24 06:01:18;;;;;;;15.03;10.97;;;10.20;99.90;;;;;;5080644;28;20187;-59
2023/10/24 06:03:46;;;;;;;17.90;11.30;;;10.20;99.90;;;;;;5079394;28;20237;-59
2023/10/24 06:06:15;;;;;;;23.83;12.17;;;10.20;99.90;;;;;;5084017;28;20288;-59
2023/10/24 06:08:44;;;;;;;15.50;11.13;;;10.20;99.90;;;;;;5086653;28;20246;-59
2023/10/24 06:11:15;;;;;;;19.43;11.57;;;10.20;99.90;;;;;;5083531;28;20219;-59
2023/10/24 06:13:43;;;;;;;20.47;11.57;;;10.20;99.90;;;;;;5096901;27;20220;-59
2023/10/24 06:16:13;;;;;;;15.73;11.17;;;10.30;99.90;;;;;;5082806;28;20199;-60
2023/10/24 06:18:43;;;;;;;19.93;11.90;;;10.30;99.90;;;;;;5082230;28;20228;-60
2023/10/24 06:21:12;;;;;;;17.10;11.53;;;10.30;99.90;;;;;;5083913;28;20211;-59
2023/10/24 06:23:41;;;;;;;17.67;11.93;;;10.40;99.90;;;;;;5083674;28;20686;-59
2023/10/24 06:26:13;;;;;;;16.70;11.70;;;10.40;99.90;;;;;;5080737;28;20221;-59
2023/10/24 06:28:41;;;;;;;16.40;12.03;;;10.40;99.90;;;;;;5081516;28;20238;-59
2023/10/24 06:31:10;;;;;;;17.83;12.23;;;10.40;99.90;;;;;;5082928;28;20192;-59
2023/10/24 06:33:40;;;;;;;19.90;12.27;;;10.40;99.90;;;;;;5083229;28;20323;-59
2023/10/24 06:36:11;;;;;;;18.93;12.27;;;10.50;99.90;;;;;;5083446;28;20219;-59
2023/10/24 06:38:39;;;;;;;23.07;13.00;;;10.50;99.90;;;;;;5081175;28;20299;-59
2023/10/24 06:41:08;;;;;;;19.37;13.07;;;10.50;99.90;;;;;;5083654;28;20222;-59
2023/10/24 06:43:37;;;;;;;19.50;13.03;;;10.50;99.90;;;;;;5083191;28;20204;-59
2023/10/24 06:46:05;;;;;;;20.77;13.67;;;10.60;99.90;;;;;;5083602;28;20195;-59
2023/10/24 06:48:34;;;;;;;20.97;11.57;;;10.70;99.90;;;;;;5085814;28;20566;-59
2023/10/24 06:51:05;;;;;;;23.77;12.67;;;10.80;99.90;;;;;;5081883;28;20218;-61
2023/10/24 06:53:35;;;;;;;19.23;12.20;;;10.80;99.90;;;;;;5083805;28;20223;-60
2023/10/24 06:56:03;;;;;;;18.47;12.13;;;10.80;99.90;;;;;;5082371;28;20223;-59
2023/10/24 06:58:31;;;;;;;17.73;12.13;;;10.80;99.90;;;;;;5082987;28;20323;-59
2023/10/24 07:01:00;;;;;;;16.97;12.20;;;10.90;99.90;;;;;;5082199;28;20200;-59
2023/10/24 07:03:28;;;;;;;20.43;13.10;;;10.90;99.90;;;;;;5081762;28;20227;-59
2023/10/24 07:05:57;;;;;;;19.43;12.07;;;11.00;99.90;;;;;;5085467;28;20220;-59
2023/10/24 07:08:25;;;;;;;20.37;11.90;;;11.00;99.90;;;;;;5093447;28;20655;-59
2023/10/24 07:10:58;;;;;;;16.30;11.77;;;11.00;99.90;;;;;;5091952;28;20215;-59
2023/10/24 07:13:27;;;;;;;16.30;11.70;;;11.10;99.90;;;;;;5086779;28;20530;-59
2023/10/24 07:15:56;;;;;;;17.63;12.20;;;11.20;99.90;;;;;;5089996;28;20191;-59
2023/10/24 07:18:24;;;;;;;16.03;10.83;;;11.30;99.90;;;;;;5093444;28;20215;-59
2023/10/24 07:20:57;;;;;;;16.63;11.70;;;11.30;99.90;;;;;;5089027;28;20258;-59
2023/10/24 07:23:26;;;;;;;16.00;11.10;;;11.40;99.90;;;;;;5089648;28;20222;-59
2023/10/24 07:25:58;;;;;;;12.83;10.10;;;11.40;99.90;;;;;;5085864;28;20219;-59
2023/10/24 07:28:27;;;;;;;13.90;10.97;;;11.50;99.90;;;;;;5093220;28;20526;-59
2023/10/24 07:30:55;;;;;;;13.43;10.20;;;11.60;99.90;;;;;;5087702;28;20241;-59
2023/10/24 07:33:23;;;;;;;13.10;9.40;;;11.60;99.90;;;;;;5090564;28;20272;-59
2023/10/24 07:35:52;;;;;;;16.03;9.60;;;11.70;99.90;;;;;;5073394;28;20302;-59
2023/10/24 07:38:20;;;;;;;14.03;9.57;;;11.80;99.90;;;;;;5086710;28;20230;-59
2023/10/24 07:40:48;;;;;;;16.63;9.67;;;11.80;99.90;;;;;;5090092;28;20227;-59
2023/10/24 07:43:18;;;;;;;13.07;8.77;;;11.80;99.90;;;;;;5093102;28;20195;-59
2023/10/24 07:45:50;;;;;;;9.93;8.57;;;11.80;99.90;;;;;;5090755;28;20663;-59
2023/10/24 07:48:19;;;;;;;10.20;8.90;;;11.80;99.90;;;;;;5085327;28;20220;-59
2023/10/24 07:50:51;;;;;;;10.93;8.73;;;11.80;99.90;;;;;;5084221;28;20273;-59
2023/10/24 07:53:20;;;;;;;11.43;8.97;;;11.90;99.90;;;;;;5087306;28;20215;-59
2023/10/24 07:55:49;;;;;;;9.93;8.93;;;11.90;99.90;;;;;;5093644;28;20262;-59
2023/10/24 07:58:19;;;;;;;14.80;9.70;;;11.90;99.90;;;;;;5085437;28;20207;-59
2023/10/24 08:00:48;;;;;;;13.57;9.30;;;11.90;99.90;;;;;;5085605;28;20224;-59
2023/10/24 08:03:17;;;;;;;19.63;10.33;;;11.90;99.90;;;;;;5086647;28;20223;-59
2023/10/24 08:05:46;;;;;;;14.73;9.97;;;11.90;99.90;;;;;;5088101;28;20272;-59
2023/10/24 08:08:14;;;;;;;15.53;10.50;;;11.90;99.90;;;;;;5086335;28;20752;-59
2023/10/24 08:10:44;;;;;;;14.13;10.23;;;11.90;99.90;;;;;;5092550;28;20586;-58
2023/10/24 08:13:12;;;;;;;13.73;9.77;;;11.90;99.90;;;;;;5086037;28;20940;-59
2023/10/24 08:15:41;;;;;;;11.83;9.10;;;11.90;99.90;;;;;;5085080;28;20847;-59
2023/10/24 08:18:10;;;;;;;12.87;9.67;;;11.90;99.90;;;;;;5074844;28;20223;-59
2023/10/24 08:20:38;;;;;;;15.73;10.40;;;11.90;99.90;;;;;;5088834;28;20218;-59
2023/10/24 08:23:06;;;;;;;16.00;10.67;;;11.90;99.90;;;;;;5091169;28;20215;-59
2023/10/24 08:25:35;;;;;;;16.70;10.50;;;11.90;99.90;;;;;;5088227;28;20187;-59
2023/10/24 08:28:03;;;;;;;17.63;10.20;;;11.90;99.90;;;;;;5092943;28;20214;-59
2023/10/24 08:30:31;;;;;;;17.90;11.83;;;11.90;99.90;;;;;;5085312;28;20223;-59
2023/10/24 08:33:01;;;;;;;13.90;10.63;;;11.90;99.90;;;;;;5086720;28;20226;-59
2023/10/24 08:35:29;;;;;;;13.73;10.50;;;11.90;99.90;;;;;;5088319;28;20215;-59
2023/10/24 08:37:58;;;;;;;17.87;10.97;;;11.90;99.90;;;;;;5082725;28;20228;-59
2023/10/24 08:40:27;;;;;;;14.93;11.27;;;12.00;99.90;;;;;;5087865;28;20208;-59
2023/10/24 08:42:58;;;;;;;16.73;10.93;;;12.00;99.90;;;;;;5089174;28;20191;-60
2023/10/24 08:45:27;;;;;;;14.87;10.50;;;11.90;99.90;;;;;;5073394;28;20250;-61
2023/10/24 08:47:56;;;;;;;18.20;11.60;;;11.90;99.90;;;;;;5085518;28;20647;-60
2023/10/24 08:50:26;;;;;;;15.80;10.73;;;11.90;99.90;;;;;;5086979;28;20208;-61
2023/10/24 08:52:54;;;;;;;16.87;10.97;;;11.90;99.90;;;;;;5088042;28;20673;-60
2023/10/24 08:55:23;;;;;;;14.30;10.27;;;11.90;99.90;;;;;;5089728;28;20592;-59
2023/10/24 08:57:53;;;;;;;17.57;9.60;;;11.80;99.90;;;;;;5103605;28;20632;-60
2023/10/24 09:00:22;;;;;;;14.80;10.10;;;11.80;99.90;;;;;;5090228;28;20234;-60
2023/10/24 09:02:51;;;;;;;15.70;10.37;;;11.80;99.90;;;;;;5092377;28;20282;-60
2023/10/24 09:05:20;;;;;;;14.43;9.97;;;11.80;99.90;;;;;;5091774;28;20219;-60
2023/10/24 09:07:50;;;;;;;12.77;9.67;;;11.80;99.90;;;;;;5087067;28;20230;-59
2023/10/24 09:10:18;;;;;;;13.17;9.00;;;11.80;99.90;;;;;;5088713;28;20195;-60
2023/10/24 09:12:46;;;;;;;10.93;8.83;;;11.90;99.90;;;;;;5084603;28;20219;-60
2023/10/24 09:15:14;;;;;;;11.60;9.20;;;11.90;99.90;;;;;;5090942;28;20265;-60
2023/10/24 09:17:43;;;;;;;11.83;8.63;;;11.80;99.90;;;;;;5088527;28;20227;-59
2023/10/24 09:20:12;;;;;;;11.50;8.93;;;11.80;99.90;;;;;;5092038;28;20306;-60
2023/10/24 09:22:42;;;;;;;10.97;8.50;;;11.80;99.90;;;;;;5087389;28;20192;-60
2023/10/24 09:25:14;;;;;;;9.73;8.60;;;11.80;99.90;;;;;;5086901;28;20188;-60
2023/10/24 09:27:42;;;;;;;13.37;8.33;;;11.80;99.90;;;;;;5090468;28;20223;-60
2023/10/24 09:30:12;;;;;;;7.73;6.60;;;11.80;99.90;;;;;;5089675;28;20222;-60
2023/10/24 09:32:41;;;;;;;9.13;6.63;;;11.80;99.90;;;;;;5077865;28;20219;-60
2023/10/24 09:35:10;;;;;;;6.60;5.93;;;11.80;99.90;;;;;;5073842;28;20215;-60
2023/10/24 09:37:45;;;;;;;13.93;5.23;;;11.70;99.90;;;;;;5088977;28;20187;-59
2023/10/24 09:40:15;;;;;;;6.77;5.50;;;11.70;99.90;;;;;;5090629;28;20191;-59
2023/10/24 09:42:44;;;;;;;5.37;4.87;;;11.70;99.90;;;;;;5096393;28;20218;-59
2023/10/24 09:45:13;;;;;;;4.70;4.30;;;11.70;99.90;;;;;;5094749;28;20229;-59
2023/10/24 09:47:42;;;;;;;10.87;4.90;;;11.60;99.90;;;;;;5076592;28;20592;-59
2023/10/24 09:50:13;;;;;;;10.90;4.50;;;11.60;99.90;;;;;;5097714;28;20210;-59
2023/10/24 09:52:44;;;;;;;5.70;5.00;;;11.60;99.90;;;;;;5097382;28;20534;-59
2023/10/24 09:55:17;;;;;;;10.30;4.60;;;11.60;99.90;;;;;;5087202;28;20188;-59
2023/10/24 09:57:47;;;;;;;4.47;4.17;;;11.60;99.90;;;;;;5096437;28;20719;-59
2023/10/24 10:00:18;;;;;;;3.70;3.50;;;11.60;99.90;;;;;;5092466;28;20582;-60
2023/10/24 10:02:47;;;;;;;3.77;3.57;;;11.60;99.90;;;;;;5098531;28;20578;-60
2023/10/24 10:05:16;;;;;;;4.00;3.60;;;11.60;99.90;;;;;;5086875;28;20224;-60
2023/10/24 10:07:49;;;;;;;5.53;3.70;;;11.60;99.90;;;;;;5073814;28;20224;-60
2023/10/24 10:10:21;;;;;;;4.83;3.33;;;11.60;99.90;;;;;;5074968;28;20188;-60
2023/10/24 10:12:51;;;;;;;3.77;3.57;;;11.60;99.90;;;;;;5079057;28;20216;-60
2023/10/24 10:15:36;;;;;;;3.80;3.50;;;11.60;99.90;;;;;;5071283;28;20215;-60
2023/10/24 10:18:17;;;;;;;4.00;3.70;;;11.60;99.90;;;;;;5079021;28;20432;-60
2023/10/24 10:20:57;;;;;;;3.60;3.40;;;11.60;99.90;;;;;;5077123;28;20242;-59
2023/10/24 10:23:48;;;;;;;4.23;3.87;;;11.60;99.90;;;;;;5084905;28;20251;-60
2023/10/24 10:26:23;;;;;;;4.00;3.70;;;11.60;99.90;;;;;;5074533;28;20223;-59
2023/10/24 10:29:14;;;;;;;4.57;3.93;;;11.60;99.90;;;;;;5073227;28;20637;-60
2023/10/24 10:32:03;;;;;;;4.53;4.30;;;11.60;99.90;;;;;;5075541;28;20180;-59
2023/10/24 10:34:52;;;;;;;6.43;4.80;;;11.70;99.90;;;;;;5081853;28;20226;-59
2023/10/24 10:37:21;;;;;;;5.77;4.67;;;11.70;99.90;;;;;;5089988;28;20196;-60
2023/10/24 10:40:27;;;;;;;4.90;4.60;;;11.80;99.90;;;;;;5097222;28;20219;-60
2023/10/24 10:42:57;;;;;;;5.83;5.20;;;11.90;99.90;;;;;;5034886;28;20211;-59
2023/10/24 10:45:29;;;;;;;8.60;5.83;;;12.00;99.90;;;;;;5097919;28;20227;-59
2023/10/24 10:47:59;;;;;;;7.67;6.47;;;12.00;99.90;;;;;;5083207;28;20303;-59
2023/10/24 10:50:29;;;;;;;10.63;7.03;;;12.10;99.90;;;;;;5087802;28;20211;-59
2023/10/24 10:53:36;;;;;;;8.67;6.90;;;12.20;99.90;;;;;;5089650;28;20246;-60
2023/10/24 10:56:18;;;;;;;12.27;8.00;;;12.30;99.90;;;;;;5029174;28;20298;-59
2023/10/24 10:59:10;;;;;;;11.20;8.93;;;12.40;99.90;;;;;;5093808;28;20276;-59
2023/10/24 11:01:49;;;;;;;15.07;9.00;;;12.60;99.90;;;;;;5082836;28;20220;-59
2023/10/24 11:04:20;;;;;;;11.87;9.60;;;12.70;99.90;;;;;;5085570;28;20218;-60
2023/10/24 11:06:52;;;;;;;11.20;8.60;;;13.10;99.90;;;;;;5092120;28;20220;-59
2023/10/24 11:09:21;;;;;;;10.27;8.47;;;13.50;99.90;;;;;;5090975;28;20204;-59
2023/10/24 11:12:23;;;;;;;8.17;7.37;;;13.80;99.90;;;;;;5091250;28;20220;-60
2023/10/24 11:15:27;;;;;;;7.80;7.00;;;14.10;99.90;;;;;;5086396;28;20584;-59
2023/10/24 11:17:56;;;;;;;6.13;5.53;;;14.50;99.90;;;;;;5084113;28;20215;-59
2023/10/24 11:20:27;;;;;;;6.67;4.60;;;14.60;99.90;;;;;;5091477;28;20698;-59
2023/10/24 11:22:56;;;;;;;4.70;4.17;;;14.80;99.90;;;;;;5090864;28;20234;-59
2023/10/24 11:25:24;;;;;;;4.00;3.70;;;15.00;99.90;;;;;;5092911;28;20199;-58
2023/10/24 11:27:52;;;;;;;3.73;3.53;;;15.00;99.90;;;;;;5086882;28;20194;-59
2023/10/24 11:30:20;;;;;;;4.13;3.70;;;15.00;99.90;;;;;;5086674;28;20240;-59
2023/10/24 11:32:50;;;;;;;4.10;3.80;;;15.00;99.90;;;;;;5077695;28;20220;-59
2023/10/24 11:35:18;;;;;;;6.20;3.67;;;14.90;99.90;;;;;;5088270;28;20774;-59
2023/10/24 11:37:47;;;;;;;3.70;3.40;;;14.90;99.90;;;;;;5088707;28;20225;-59
2023/10/24 11:40:16;;;;;;;4.70;3.40;;;15.10;99.90;;;;;;5089348;28;20534;-59
2023/10/24 11:42:45;;;;;;;3.37;3.17;;;15.00;99.90;;;;;;5094395;28;20677;-59
2023/10/24 11:45:15;;;;;;;3.00;2.90;;;15.00;99.90;;;;;;5094226;28;20218;-54
2023/10/24 11:47:43;;;;;;;3.07;2.87;;;15.10;99.90;;;;;;5080952;28;20216;-60
2023/10/24 11:50:15;;;;;;;2.70;2.50;;;15.30;99.90;;;;;;5079452;28;20223;-58
2023/10/24 11:52:43;;;;;;;3.27;2.47;;;15.40;99.90;;;;;;5082238;28;20292;-58
2023/10/24 11:55:11;;;;;;;2.70;2.50;;;15.40;99.90;;;;;;5090220;28;20229;-58
2023/10/24 11:57:40;;;;;;;2.73;2.60;;;15.50;99.90;;;;;;5084061;28;20218;-58
2023/10/24 12:00:16;;;;;;;3.70;2.47;;;15.60;99.90;;;;;;5089408;28;20227;-58
2023/10/24 12:02:46;;;;;;;2.60;2.40;;;15.90;99.90;;;;;;5079854;28;20219;-59
2023/10/24 12:05:16;;;;;;;4.10;2.90;;;16.00;99.90;;;;;;5085658;28;20558;-58
2023/10/24 12:07:52;;;;;;;3.30;2.63;;;16.10;77.00;;;;;;5082102;28;20215;-58
2023/10/24 12:10:20;;;;;;;5.00;2.87;;;16.10;91.40;;;;;;5090004;28;20233;-58
2023/10/24 12:12:48;;;;;;;3.50;3.20;;;15.90;88.40;;;;;;5086009;28;20578;-58
2023/10/24 12:15:17;;;;;;;5.23;3.27;;;15.80;98.30;;;;;;5089882;28;20251;-58
2023/10/24 12:17:46;;;;;;;3.20;3.00;;;15.80;99.90;;;;;;5087117;28;20253;-59
2023/10/24 12:23:42;;;;;;;3.70;3.20;;;15.90;97.80;;;;;;5084697;28;20333;-58
2023/10/24 12:26:10;;;;;;;5.80;3.03;;;15.80;86.00;;;;;;5090829;28;20225;-58
2023/10/24 12:28:42;;;;;;;3.53;3.10;;;15.70;86.20;;;;;;5090358;28;20183;-58
2023/10/24 12:31:11;;;;;;;3.37;2.97;;;15.60;95.00;;;;;;5089567;28;20190;-58
2023/10/24 12:33:40;;;;;;;5.20;3.17;;;15.60;96.30;;;;;;5086312;28;20271;-58
2023/10/24 12:36:08;;;;;;;4.00;2.67;;;15.70;95.70;;;;;;5082453;28;20219;-59
2023/10/24 12:38:37;;;;;;;3.63;2.40;;;15.80;93.60;;;;;;5084675;28;20222;-58
2023/10/24 12:41:07;;;;;;;2.30;2.20;;;15.90;91.50;;;;;;5080770;28;20231;-59
2023/10/24 12:43:35;;;;;;;2.47;2.00;;;16.20;92.90;;;;;;5076181;28;20196;-58
2023/10/24 12:46:22;;;;;;;2.33;2.10;;;16.20;68.70;;;;;;5087337;28;20199;-58
2023/10/24 12:48:50;;;;;;;4.93;2.00;;;16.20;55.40;;;;;;5082162;28;20210;-58
2023/10/24 12:51:30;;;;;;;3.17;2.20;;;16.40;67.40;;;;;;5084285;28;20222;-58
2023/10/24 12:54:20;;;;;;;3.20;1.70;;;16.60;49.60;;;;;;5083077;28;20710;-58
2023/10/24 12:56:51;;;;;;;2.07;1.80;;;16.70;26.40;;;;;;5079578;28;20547;-58